Terminal Aerodrome Forecast
Issued by NWS Grand Forks, ND

Home | Current Version | Previous Version | Graphics & Text | Print | Product List | Glossary On
Versions: 1 2 3 4 5 6 7 8 9 10 11 12 13 14
654
FTUS43 KFGF 171727
TAFGFK
TAF
KGFK 171727Z 1718/1818 21014G22KT P6SM SKC
     FM180100 20009KT P6SM SKC
     FM180200 20010KT P6SM SKC WS020/24040KT
     FM181100 23011KT P6SM SCT250 WS020/28040KT
     FM181400 28017G27KT P6SM SCT250
     FM181700 28024G34KT P6SM FEW250=

USA.gov is the U.S. government's official web portal to all federal, state and local government web resources and services.